sensor_id;sensor_type;location;lat;lon;timestamp;P1;durP1;ratioP1;P2;durP2;ratioP2
1471;SDS011;963;42.644;23.336;2024-03-23T00:53:09;14.30;;;9.20;;
1471;SDS011;963;42.644;23.336;2024-03-23T00:55:35;14.33;;;9.57;;
1471;SDS011;963;42.644;23.336;2024-03-23T00:58:00;18.30;;;9.70;;
1471;SDS011;963;42.644;23.336;2024-03-23T01:00:26;16.10;;;10.10;;
1471;SDS011;963;42.644;23.336;2024-03-23T01:02:51;12.77;;;9.37;;
1471;SDS011;963;42.644;23.336;2024-03-23T01:05:16;12.37;;;9.80;;
1471;SDS011;963;42.644;23.336;2024-03-23T01:07:42;13.60;;;8.57;;
1471;SDS011;963;42.644;23.336;2024-03-23T01:10:07;8.53;;;7.30;;
1471;SDS011;963;42.644;23.336;2024-03-23T01:12:33;18.20;;;8.10;;
1471;SDS011;963;42.644;23.336;2024-03-23T01:14:58;10.30;;;7.60;;
1471;SDS011;963;42.644;23.336;2024-03-23T01:17:23;13.87;;;8.60;;
1471;SDS011;963;42.644;23.336;2024-03-23T01:19:49;12.77;;;8.50;;
1471;SDS011;963;42.644;23.336;2024-03-23T01:22:14;9.70;;;7.23;;
1471;SDS011;963;42.644;23.336;2024-03-23T01:24:40;11.27;;;8.23;;
1471;SDS011;963;42.644;23.336;2024-03-23T01:27:05;8.93;;;6.67;;
1471;SDS011;963;42.644;23.336;2024-03-23T01:29:30;12.00;;;6.10;;
1471;SDS011;963;42.644;23.336;2024-03-23T01:31:56;10.57;;;7.60;;
1471;SDS011;963;42.644;23.336;2024-03-23T01:34:21;11.37;;;6.93;;
1471;SDS011;963;42.644;23.336;2024-03-23T01:36:47;10.80;;;7.30;;
1471;SDS011;963;42.644;23.336;2024-03-23T01:39:12;13.57;;;6.80;;
1471;SDS011;963;42.644;23.336;2024-03-23T01:41:39;9.80;;;6.70;;
1471;SDS011;963;42.644;23.336;2024-03-23T01:44:07;17.27;;;6.80;;
1471;SDS011;963;42.644;23.336;2024-03-23T01:46:33;12.40;;;7.00;;
1471;SDS011;963;42.644;23.336;2024-03-23T01:48:59;9.67;;;7.73;;
1471;SDS011;963;42.644;23.336;2024-03-23T01:51:25;9.67;;;7.30;;
1471;SDS011;963;42.644;23.336;2024-03-23T01:53:51;14.17;;;8.33;;
1471;SDS011;963;42.644;23.336;2024-03-23T01:56:19;14.17;;;8.50;;
1471;SDS011;963;42.644;23.336;2024-03-23T01:58:45;14.67;;;7.43;;
1471;SDS011;963;42.644;23.336;2024-03-23T02:01:11;13.37;;;6.73;;
1471;SDS011;963;42.644;23.336;2024-03-23T02:03:36;13.50;;;8.43;;
1471;SDS011;963;42.644;23.336;2024-03-23T02:06:02;11.50;;;7.40;;
1471;SDS011;963;42.644;23.336;2024-03-23T02:08:27;11.90;;;7.87;;
1471;SDS011;963;42.644;23.336;2024-03-23T02:10:54;9.57;;;7.10;;
1471;SDS011;963;42.644;23.336;2024-03-23T02:13:20;11.93;;;7.73;;
1471;SDS011;963;42.644;23.336;2024-03-23T02:15:46;12.67;;;8.20;;
1471;SDS011;963;42.644;23.336;2024-03-23T02:18:11;8.83;;;7.33;;
1471;SDS011;963;42.644;23.336;2024-03-23T02:20:37;13.23;;;8.50;;
1471;SDS011;963;42.644;23.336;2024-03-23T02:23:12;15.73;;;8.20;;
1471;SDS011;963;42.644;23.336;2024-03-23T02:25:38;11.83;;;8.17;;
1471;SDS011;963;42.644;23.336;2024-03-23T02:28:04;11.37;;;8.10;;
1471;SDS011;963;42.644;23.336;2024-03-23T02:30:30;10.63;;;7.67;;
1471;SDS011;963;42.644;23.336;2024-03-23T02:32:55;10.27;;;8.00;;
1471;SDS011;963;42.644;23.336;2024-03-23T02:35:21;15.10;;;8.70;;
1471;SDS011;963;42.644;23.336;2024-03-23T02:37:46;15.43;;;9.77;;
1471;SDS011;963;42.644;23.336;2024-03-23T02:40:14;14.13;;;8.37;;
1471;SDS011;963;42.644;23.336;2024-03-23T02:42:40;19.30;;;10.10;;
1471;SDS011;963;42.644;23.336;2024-03-23T02:45:05;16.60;;;9.33;;
1471;SDS011;963;42.644;23.336;2024-03-23T02:47:31;12.50;;;8.10;;
1471;SDS011;963;42.644;23.336;2024-03-23T02:49:56;13.13;;;8.30;;
1471;SDS011;963;42.644;23.336;2024-03-23T02:52:21;15.70;;;8.00;;
1471;SDS011;963;42.644;23.336;2024-03-23T02:54:47;11.03;;;7.67;;
1471;SDS011;963;42.644;23.336;2024-03-23T02:57:12;15.83;;;8.40;;
1471;SDS011;963;42.644;23.336;2024-03-23T02:59:38;10.63;;;7.40;;
1471;SDS011;963;42.644;23.336;2024-03-23T03:02:03;18.77;;;9.80;;
1471;SDS011;963;42.644;23.336;2024-03-23T03:04:30;13.63;;;9.03;;
1471;SDS011;963;42.644;23.336;2024-03-23T03:06:55;16.93;;;9.20;;
1471;SDS011;963;42.644;23.336;2024-03-23T03:09:21;15.47;;;9.23;;
1471;SDS011;963;42.644;23.336;2024-03-23T03:11:46;14.80;;;9.60;;
1471;SDS011;963;42.644;23.336;2024-03-23T03:14:12;11.20;;;9.40;;
1471;SDS011;963;42.644;23.336;2024-03-23T03:16:37;18.53;;;10.03;;
1471;SDS011;963;42.644;23.336;2024-03-23T03:19:03;17.23;;;9.27;;
1471;SDS011;963;42.644;23.336;2024-03-23T03:21:28;14.27;;;8.90;;
1471;SDS011;963;42.644;23.336;2024-03-23T03:23:54;13.27;;;8.60;;
1471;SDS011;963;42.644;23.336;2024-03-23T03:26:21;16.73;;;8.90;;
1471;SDS011;963;42.644;23.336;2024-03-23T03:28:46;16.20;;;10.20;;
1471;SDS011;963;42.644;23.336;2024-03-23T03:31:16;14.87;;;9.63;;
1471;SDS011;963;42.644;23.336;2024-03-23T03:33:42;16.67;;;9.60;;
1471;SDS011;963;42.644;23.336;2024-03-23T03:36:08;14.73;;;10.67;;
1471;SDS011;963;42.644;23.336;2024-03-23T03:38:34;18.37;;;9.47;;
1471;SDS011;963;42.644;23.336;2024-03-23T03:41:03;12.53;;;9.07;;
1471;SDS011;963;42.644;23.336;2024-03-23T03:43:29;12.63;;;8.63;;
1471;SDS011;963;42.644;23.336;2024-03-23T03:45:55;17.60;;;9.80;;
1471;SDS011;963;42.644;23.336;2024-03-23T03:48:21;12.97;;;9.23;;
1471;SDS011;963;42.644;23.336;2024-03-23T03:50:47;13.40;;;8.93;;
1471;SDS011;963;42.644;23.336;2024-03-23T03:53:13;10.90;;;8.60;;
1471;SDS011;963;42.644;23.336;2024-03-23T03:55:38;12.77;;;9.57;;
1471;SDS011;963;42.644;23.336;2024-03-23T03:58:04;13.53;;;8.73;;
1471;SDS011;963;42.644;23.336;2024-03-23T04:00:30;11.60;;;8.00;;
1471;SDS011;963;42.644;23.336;2024-03-23T04:02:56;11.00;;;8.77;;
1471;SDS011;963;42.644;23.336;2024-03-23T04:05:21;16.83;;;8.73;;
1471;SDS011;963;42.644;23.336;2024-03-23T04:07:47;12.37;;;9.37;;
1471;SDS011;963;42.644;23.336;2024-03-23T04:10:12;16.60;;;9.50;;
1471;SDS011;963;42.644;23.336;2024-03-23T04:12:38;13.63;;;8.90;;
1471;SDS011;963;42.644;23.336;2024-03-23T04:15:03;13.27;;;9.10;;
1471;SDS011;963;42.644;23.336;2024-03-23T04:17:30;18.13;;;9.83;;
1471;SDS011;963;42.644;23.336;2024-03-23T04:19:59;22.20;;;10.03;;
1471;SDS011;963;42.644;23.336;2024-03-23T04:22:25;13.73;;;9.90;;
1471;SDS011;963;42.644;23.336;2024-03-23T04:24:54;12.17;;;8.30;;
1471;SDS011;963;42.644;23.336;2024-03-23T04:27:20;12.23;;;8.83;;
1471;SDS011;963;42.644;23.336;2024-03-23T04:29:47;16.50;;;9.80;;
1471;SDS011;963;42.644;23.336;2024-03-23T04:32:13;15.20;;;10.10;;
1471;SDS011;963;42.644;23.336;2024-03-23T04:34:39;16.33;;;10.30;;
1471;SDS011;963;42.644;23.336;2024-03-23T04:37:04;20.07;;;11.33;;
1471;SDS011;963;42.644;23.336;2024-03-23T04:39:30;15.67;;;10.73;;
1471;SDS011;963;42.644;23.336;2024-03-23T04:41:55;18.83;;;10.40;;
1471;SDS011;963;42.644;23.336;2024-03-23T04:44:20;19.00;;;9.83;;
1471;SDS011;963;42.644;23.336;2024-03-23T04:46:46;20.60;;;11.00;;
1471;SDS011;963;42.644;23.336;2024-03-23T04:49:11;15.67;;;10.30;;
1471;SDS011;963;42.644;23.336;2024-03-23T04:51:37;20.50;;;10.30;;
1471;SDS011;963;42.644;23.336;2024-03-23T04:54:10;18.27;;;10.63;;
1471;SDS011;963;42.644;23.336;2024-03-23T04:56:36;22.17;;;10.73;;
1471;SDS011;963;42.644;23.336;2024-03-23T04:59:01;16.33;;;10.43;;
1471;SDS011;963;42.644;23.336;2024-03-23T05:01:29;20.10;;;10.30;;
1471;SDS011;963;42.644;23.336;2024-03-23T05:03:55;15.30;;;10.30;;
1471;SDS011;963;42.644;23.336;2024-03-23T05:06:22;18.50;;;10.43;;
1471;SDS011;963;42.644;23.336;2024-03-23T05:08:47;17.37;;;10.33;;
1471;SDS011;963;42.644;23.336;2024-03-23T05:11:13;22.50;;;10.97;;
1471;SDS011;963;42.644;23.336;2024-03-23T05:13:38;21.73;;;11.60;;
1471;SDS011;963;42.644;23.336;2024-03-23T05:16:04;14.03;;;9.30;;
1471;SDS011;963;42.644;23.336;2024-03-23T05:18:29;17.80;;;10.37;;
1471;SDS011;963;42.644;23.336;2024-03-23T05:20:58;14.93;;;10.13;;
1471;SDS011;963;42.644;23.336;2024-03-23T05:23:24;13.77;;;9.00;;
1471;SDS011;963;42.644;23.336;2024-03-23T05:25:50;17.90;;;9.40;;
1471;SDS011;963;42.644;23.336;2024-03-23T05:28:16;14.00;;;10.00;;
1471;SDS011;963;42.644;23.336;2024-03-23T05:30:42;17.70;;;10.30;;
1471;SDS011;963;42.644;23.336;2024-03-23T05:33:08;17.03;;;10.40;;
1471;SDS011;963;42.644;23.336;2024-03-23T05:35:33;20.27;;;10.53;;
1471;SDS011;963;42.644;23.336;2024-03-23T05:37:59;20.27;;;10.47;;
1471;SDS011;963;42.644;23.336;2024-03-23T05:40:25;15.37;;;9.70;;
1471;SDS011;963;42.644;23.336;2024-03-23T05:42:51;16.30;;;10.27;;
1471;SDS011;963;42.644;23.336;2024-03-23T05:45:23;15.40;;;10.07;;
1471;SDS011;963;42.644;23.336;2024-03-23T05:47:48;14.17;;;9.63;;
1471;SDS011;963;42.644;23.336;2024-03-23T05:50:15;20.70;;;10.03;;
1471;SDS011;963;42.644;23.336;2024-03-23T05:52:41;15.53;;;9.67;;
1471;SDS011;963;42.644;23.336;2024-03-23T05:55:08;16.33;;;10.03;;
1471;SDS011;963;42.644;23.336;2024-03-23T05:57:34;14.87;;;9.70;;
1471;SDS011;963;42.644;23.336;2024-03-23T05:59:59;15.50;;;10.10;;
1471;SDS011;963;42.644;23.336;2024-03-23T06:02:25;16.47;;;10.50;;
1471;SDS011;963;42.644;23.336;2024-03-23T06:04:50;20.60;;;10.70;;
1471;SDS011;963;42.644;23.336;2024-03-23T06:07:15;16.60;;;10.97;;
1471;SDS011;963;42.644;23.336;2024-03-23T06:09:41;21.90;;;11.87;;
1471;SDS011;963;42.644;23.336;2024-03-23T06:12:07;18.60;;;11.90;;
1471;SDS011;963;42.644;23.336;2024-03-23T06:14:33;20.00;;;12.80;;
1471;SDS011;963;42.644;23.336;2024-03-23T06:16:59;18.70;;;12.90;;
1471;SDS011;963;42.644;23.336;2024-03-23T06:19:25;23.87;;;13.93;;
1471;SDS011;963;42.644;23.336;2024-03-23T06:21:52;23.83;;;14.60;;
1471;SDS011;963;42.644;23.336;2024-03-23T06:24:19;23.03;;;14.10;;
1471;SDS011;963;42.644;23.336;2024-03-23T06:26:44;21.10;;;14.37;;
1471;SDS011;963;42.644;23.336;2024-03-23T06:29:10;27.60;;;14.67;;
1471;SDS011;963;42.644;23.336;2024-03-23T06:31:35;23.93;;;13.90;;
1471;SDS011;963;42.644;23.336;2024-03-23T06:34:00;22.93;;;13.50;;
1471;SDS011;963;42.644;23.336;2024-03-23T06:36:26;22.17;;;14.50;;
1471;SDS011;963;42.644;23.336;2024-03-23T06:38:52;19.47;;;13.00;;
1471;SDS011;963;42.644;23.336;2024-03-23T06:41:18;23.90;;;14.03;;
1471;SDS011;963;42.644;23.336;2024-03-23T06:43:44;23.13;;;13.83;;
1471;SDS011;963;42.644;23.336;2024-03-23T06:46:10;29.20;;;13.70;;
1471;SDS011;963;42.644;23.336;2024-03-23T06:48:35;18.53;;;11.80;;
1471;SDS011;963;42.644;23.336;2024-03-23T06:51:00;15.80;;;10.67;;
1471;SDS011;963;42.644;23.336;2024-03-23T06:53:26;20.47;;;12.43;;
1471;SDS011;963;42.644;23.336;2024-03-23T06:55:52;18.30;;;11.87;;
1471;SDS011;963;42.644;23.336;2024-03-23T06:58:21;17.13;;;12.33;;
1471;SDS011;963;42.644;23.336;2024-03-23T07:00:48;21.30;;;12.90;;
1471;SDS011;963;42.644;23.336;2024-03-23T07:03:14;17.13;;;11.90;;
1471;SDS011;963;42.644;23.336;2024-03-23T07:05:39;22.77;;;11.37;;
1471;SDS011;963;42.644;23.336;2024-03-23T07:08:05;18.87;;;11.40;;
1471;SDS011;963;42.644;23.336;2024-03-23T07:10:30;17.77;;;10.90;;
1471;SDS011;963;42.644;23.336;2024-03-23T07:12:56;13.97;;;10.90;;
1471;SDS011;963;42.644;23.336;2024-03-23T07:15:21;13.63;;;10.73;;
1471;SDS011;963;42.644;23.336;2024-03-23T07:17:47;15.43;;;11.20;;
1471;SDS011;963;42.644;23.336;2024-03-23T07:20:13;18.50;;;11.57;;
1471;SDS011;963;42.644;23.336;2024-03-23T07:22:38;20.13;;;11.70;;
1471;SDS011;963;42.644;23.336;2024-03-23T07:25:04;15.00;;;11.10;;
1471;SDS011;963;42.644;23.336;2024-03-23T07:27:31;14.03;;;10.07;;
1471;SDS011;963;42.644;23.336;2024-03-23T07:29:56;12.67;;;9.30;;
1471;SDS011;963;42.644;23.336;2024-03-23T07:32:21;17.17;;;10.77;;
1471;SDS011;963;42.644;23.336;2024-03-23T07:34:47;13.70;;;9.67;;
1471;SDS011;963;42.644;23.336;2024-03-23T07:37:12;13.30;;;8.10;;
1471;SDS011;963;42.644;23.336;2024-03-23T07:39:39;18.10;;;9.67;;
1471;SDS011;963;42.644;23.336;2024-03-23T07:42:04;13.03;;;9.23;;
1471;SDS011;963;42.644;23.336;2024-03-23T07:44:30;11.50;;;8.47;;
1471;SDS011;963;42.644;23.336;2024-03-23T07:46:55;13.37;;;9.00;;
1471;SDS011;963;42.644;23.336;2024-03-23T07:49:21;13.43;;;9.20;;
1471;SDS011;963;42.644;23.336;2024-03-23T07:51:46;19.57;;;11.10;;
1471;SDS011;963;42.644;23.336;2024-03-23T07:54:12;22.40;;;10.47;;
1471;SDS011;963;42.644;23.336;2024-03-23T07:56:37;14.10;;;9.03;;
1471;SDS011;963;42.644;23.336;2024-03-23T07:59:03;13.93;;;8.90;;
1471;SDS011;963;42.644;23.336;2024-03-23T08:01:28;16.63;;;9.27;;
1471;SDS011;963;42.644;23.336;2024-03-23T08:03:54;17.30;;;9.60;;
1471;SDS011;963;42.644;23.336;2024-03-23T08:06:19;13.10;;;9.23;;
1471;SDS011;963;42.644;23.336;2024-03-23T08:08:48;12.53;;;8.43;;
1471;SDS011;963;42.644;23.336;2024-03-23T08:11:16;12.00;;;7.83;;
1471;SDS011;963;42.644;23.336;2024-03-23T08:13:42;11.53;;;9.03;;
1471;SDS011;963;42.644;23.336;2024-03-23T08:16:10;12.23;;;7.90;;
1471;SDS011;963;42.644;23.336;2024-03-23T08:18:35;12.03;;;9.00;;
1471;SDS011;963;42.644;23.336;2024-03-23T08:23:27;13.70;;;9.10;;
1471;SDS011;963;42.644;23.336;2024-03-23T08:25:57;12.40;;;8.20;;
1471;SDS011;963;42.644;23.336;2024-03-23T08:28:23;13.30;;;9.97;;
1471;SDS011;963;42.644;23.336;2024-03-23T08:30:49;15.63;;;9.50;;
1471;SDS011;963;42.644;23.336;2024-03-23T08:33:15;12.30;;;8.67;;
1471;SDS011;963;42.644;23.336;2024-03-23T08:35:40;14.07;;;9.50;;
1471;SDS011;963;42.644;23.336;2024-03-23T08:38:06;12.30;;;8.70;;
1471;SDS011;963;42.644;23.336;2024-03-23T08:40:31;19.87;;;9.07;;
1471;SDS011;963;42.644;23.336;2024-03-23T08:42:57;14.27;;;9.50;;
1471;SDS011;963;42.644;23.336;2024-03-23T08:45:23;19.67;;;10.90;;
1471;SDS011;963;42.644;23.336;2024-03-23T08:47:51;15.53;;;9.30;;
1471;SDS011;963;42.644;23.336;2024-03-23T08:50:17;13.87;;;9.70;;
1471;SDS011;963;42.644;23.336;2024-03-23T08:52:42;27.47;;;10.57;;
1471;SDS011;963;42.644;23.336;2024-03-23T08:55:08;18.33;;;9.63;;
1471;SDS011;963;42.644;23.336;2024-03-23T08:57:34;13.73;;;9.53;;
1471;SDS011;963;42.644;23.336;2024-03-23T09:00:00;14.17;;;9.47;;
1471;SDS011;963;42.644;23.336;2024-03-23T09:02:26;17.50;;;10.53;;
1471;SDS011;963;42.644;23.336;2024-03-23T09:04:51;20.80;;;10.50;;
1471;SDS011;963;42.644;23.336;2024-03-23T09:07:16;17.47;;;9.73;;
1471;SDS011;963;42.644;23.336;2024-03-23T09:09:42;17.87;;;10.07;;
1471;SDS011;963;42.644;23.336;2024-03-23T09:12:07;18.33;;;10.30;;
1471;SDS011;963;42.644;23.336;2024-03-23T09:14:33;15.03;;;9.60;;
1471;SDS011;963;42.644;23.336;2024-03-23T09:16:59;12.50;;;8.07;;
1471;SDS011;963;42.644;23.336;2024-03-23T09:19:26;14.20;;;9.97;;
1471;SDS011;963;42.644;23.336;2024-03-23T09:21:53;15.60;;;10.07;;
1471;SDS011;963;42.644;23.336;2024-03-23T09:24:18;16.17;;;10.10;;
1471;SDS011;963;42.644;23.336;2024-03-23T09:26:44;16.73;;;10.00;;
1471;SDS011;963;42.644;23.336;2024-03-23T09:29:09;19.37;;;10.60;;
1471;SDS011;963;42.644;23.336;2024-03-23T09:31:34;13.40;;;9.40;;
1471;SDS011;963;42.644;23.336;2024-03-23T09:34:00;15.47;;;9.90;;
1471;SDS011;963;42.644;23.336;2024-03-23T09:36:25;17.63;;;9.80;;
1471;SDS011;963;42.644;23.336;2024-03-23T09:38:51;20.20;;;9.43;;
1471;SDS011;963;42.644;23.336;2024-03-23T09:41:16;13.90;;;9.30;;
1471;SDS011;963;42.644;23.336;2024-03-23T09:43:41;26.80;;;11.53;;
1471;SDS011;963;42.644;23.336;2024-03-23T09:46:07;14.40;;;9.57;;
1471;SDS011;963;42.644;23.336;2024-03-23T09:48:33;11.57;;;9.53;;
1471;SDS011;963;42.644;23.336;2024-03-23T09:50:58;16.27;;;8.90;;
1471;SDS011;963;42.644;23.336;2024-03-23T09:53:24;12.13;;;8.10;;
1471;SDS011;963;42.644;23.336;2024-03-23T09:55:49;16.50;;;8.90;;
1471;SDS011;963;42.644;23.336;2024-03-23T09:58:15;13.37;;;9.00;;
1471;SDS011;963;42.644;23.336;2024-03-23T10:00:41;16.40;;;9.10;;
1471;SDS011;963;42.644;23.336;2024-03-23T10:03:07;11.73;;;8.53;;
1471;SDS011;963;42.644;23.336;2024-03-23T10:05:33;13.60;;;9.33;;
1471;SDS011;963;42.644;23.336;2024-03-23T10:07:59;12.10;;;9.80;;
1471;SDS011;963;42.644;23.336;2024-03-23T10:10:25;14.97;;;9.13;;
1471;SDS011;963;42.644;23.336;2024-03-23T10:12:51;14.30;;;8.73;;
1471;SDS011;963;42.644;23.336;2024-03-23T10:15:21;12.13;;;9.23;;
1471;SDS011;963;42.644;23.336;2024-03-23T10:17:49;14.80;;;9.53;;
1471;SDS011;963;42.644;23.336;2024-03-23T10:20:21;22.67;;;8.60;;
1471;SDS011;963;42.644;23.336;2024-03-23T10:22:48;10.60;;;8.47;;
1471;SDS011;963;42.644;23.336;2024-03-23T10:25:14;39.90;;;10.37;;
1471;SDS011;963;42.644;23.336;2024-03-23T10:27:40;13.30;;;8.03;;
1471;SDS011;963;42.644;23.336;2024-03-23T10:30:09;11.63;;;7.53;;
1471;SDS011;963;42.644;23.336;2024-03-23T10:32:35;14.80;;;9.23;;
1471;SDS011;963;42.644;23.336;2024-03-23T10:35:16;15.53;;;9.43;;
1471;SDS011;963;42.644;23.336;2024-03-23T10:37:44;10.60;;;8.07;;
1471;SDS011;963;42.644;23.336;2024-03-23T10:40:10;12.53;;;8.63;;
1471;SDS011;963;42.644;23.336;2024-03-23T10:42:37;10.77;;;8.53;;
1471;SDS011;963;42.644;23.336;2024-03-23T10:45:06;14.67;;;9.07;;
1471;SDS011;963;42.644;23.336;2024-03-23T10:47:33;10.80;;;8.27;;
1471;SDS011;963;42.644;23.336;2024-03-23T10:50:00;18.40;;;10.03;;
1471;SDS011;963;42.644;23.336;2024-03-23T10:52:26;16.07;;;9.87;;
1471;SDS011;963;42.644;23.336;2024-03-23T10:54:52;12.17;;;8.60;;
1471;SDS011;963;42.644;23.336;2024-03-23T10:57:18;12.83;;;8.17;;
1471;SDS011;963;42.644;23.336;2024-03-23T10:59:48;13.23;;;8.33;;
1471;SDS011;963;42.644;23.336;2024-03-23T11:02:20;11.00;;;8.40;;
1471;SDS011;963;42.644;23.336;2024-03-23T11:04:46;12.83;;;8.83;;
1471;SDS011;963;42.644;23.336;2024-03-23T11:09:49;10.83;;;7.90;;
1471;SDS011;963;42.644;23.336;2024-03-23T11:15:01;9.80;;;7.73;;
1471;SDS011;963;42.644;23.336;2024-03-23T11:17:29;12.90;;;8.20;;
1471;SDS011;963;42.644;23.336;2024-03-23T11:19:55;18.63;;;9.33;;
1471;SDS011;963;42.644;23.336;2024-03-23T11:25:24;9.87;;;7.40;;
1471;SDS011;963;42.644;23.336;2024-03-23T11:27:49;8.87;;;7.10;;
1471;SDS011;963;42.644;23.336;2024-03-23T11:32:45;10.60;;;7.70;;
1471;SDS011;963;42.644;23.336;2024-03-23T11:35:30;11.60;;;7.77;;
1471;SDS011;963;42.644;23.336;2024-03-23T11:38:06;10.50;;;6.97;;
1471;SDS011;963;42.644;23.336;2024-03-23T11:40:37;10.10;;;7.70;;
1471;SDS011;963;42.644;23.336;2024-03-23T11:43:07;11.43;;;7.70;;
1471;SDS011;963;42.644;23.336;2024-03-23T11:45:35;17.17;;;8.17;;
1471;SDS011;963;42.644;23.336;2024-03-23T11:48:09;12.97;;;7.20;;
1471;SDS011;963;42.644;23.336;2024-03-23T11:50:37;26.43;;;8.50;;
1471;SDS011;963;42.644;23.336;2024-03-23T11:53:12;9.00;;;7.30;;
1471;SDS011;963;42.644;23.336;2024-03-23T11:55:38;15.13;;;7.83;;
1471;SDS011;963;42.644;23.336;2024-03-23T11:58:07;12.93;;;7.33;;
1471;SDS011;963;42.644;23.336;2024-03-23T12:00:33;9.53;;;7.13;;
1471;SDS011;963;42.644;23.336;2024-03-23T12:03:02;12.07;;;7.47;;
1471;SDS011;963;42.644;23.336;2024-03-23T12:05:28;9.67;;;7.57;;
1471;SDS011;963;42.644;23.336;2024-03-23T12:07:55;14.40;;;7.30;;
1471;SDS011;963;42.644;23.336;2024-03-23T12:10:39;13.00;;;6.80;;
1471;SDS011;963;42.644;23.336;2024-03-23T12:13:05;15.13;;;7.30;;
1471;SDS011;963;42.644;23.336;2024-03-23T12:15:31;17.27;;;7.20;;
1471;SDS011;963;42.644;23.336;2024-03-23T12:18:06;20.93;;;8.70;;
1471;SDS011;963;42.644;23.336;2024-03-23T12:20:32;11.57;;;7.70;;
1471;SDS011;963;42.644;23.336;2024-03-23T12:23:07;10.20;;;7.83;;
1471;SDS011;963;42.644;23.336;2024-03-23T12:25:34;24.60;;;15.97;;
1471;SDS011;963;42.644;23.336;2024-03-23T12:28:01;17.57;;;12.87;;
1471;SDS011;963;42.644;23.336;2024-03-23T12:30:27;9.83;;;6.80;;
1471;SDS011;963;42.644;23.336;2024-03-23T12:32:52;18.33;;;7.60;;
1471;SDS011;963;42.644;23.336;2024-03-23T12:35:18;9.10;;;7.27;;
1471;SDS011;963;42.644;23.336;2024-03-23T12:37:43;8.47;;;6.13;;
1471;SDS011;963;42.644;23.336;2024-03-23T12:40:09;9.97;;;6.70;;
1471;SDS011;963;42.644;23.336;2024-03-23T12:42:35;13.07;;;7.50;;
1471;SDS011;963;42.644;23.336;2024-03-23T12:45:00;16.27;;;6.37;;
1471;SDS011;963;42.644;23.336;2024-03-23T12:47:26;7.87;;;6.00;;
1471;SDS011;963;42.644;23.336;2024-03-23T12:49:52;31.80;;;27.77;;
1471;SDS011;963;42.644;23.336;2024-03-23T12:52:17;32.10;;;24.03;;
1471;SDS011;963;42.644;23.336;2024-03-23T12:54:42;7.07;;;5.07;;
1471;SDS011;963;42.644;23.336;2024-03-23T12:57:08;6.07;;;4.47;;
1471;SDS011;963;42.644;23.336;2024-03-23T12:59:33;8.97;;;5.27;;
1471;SDS011;963;42.644;23.336;2024-03-23T13:02:00;4.57;;;3.90;;
1471;SDS011;963;42.644;23.336;2024-03-23T13:04:26;5.10;;;3.20;;
1471;SDS011;963;42.644;23.336;2024-03-23T13:06:51;4.57;;;3.23;;
1471;SDS011;963;42.644;23.336;2024-03-23T13:09:16;5.97;;;2.80;;
1471;SDS011;963;42.644;23.336;2024-03-23T13:11:42;5.50;;;3.43;;
1471;SDS011;963;42.644;23.336;2024-03-23T13:14:07;6.10;;;3.53;;
1471;SDS011;963;42.644;23.336;2024-03-23T13:16:33;5.17;;;4.00;;
1471;SDS011;963;42.644;23.336;2024-03-23T13:18:58;12.07;;;4.80;;
1471;SDS011;963;42.644;23.336;2024-03-23T13:21:24;7.23;;;3.97;;
1471;SDS011;963;42.644;23.336;2024-03-23T13:23:49;6.77;;;3.90;;
1471;SDS011;963;42.644;23.336;2024-03-23T13:26:16;5.90;;;3.30;;
1471;SDS011;963;42.644;23.336;2024-03-23T13:28:41;5.10;;;3.23;;
1471;SDS011;963;42.644;23.336;2024-03-23T13:31:07;4.20;;;2.80;;
1471;SDS011;963;42.644;23.336;2024-03-23T13:33:33;6.00;;;3.13;;
1471;SDS011;963;42.644;23.336;2024-03-23T13:35:59;2.77;;;2.47;;
1471;SDS011;963;42.644;23.336;2024-03-23T13:38:24;6.43;;;2.60;;
1471;SDS011;963;42.644;23.336;2024-03-23T13:40:57;1.97;;;1.40;;
1471;SDS011;963;42.644;23.336;2024-03-23T13:43:24;4.33;;;1.53;;
1471;SDS011;963;42.644;23.336;2024-03-23T13:45:54;6.13;;;1.70;;
1471;SDS011;963;42.644;23.336;2024-03-23T13:48:21;2.30;;;1.33;;
1471;SDS011;963;42.644;23.336;2024-03-23T13:50:47;1.67;;;1.20;;
1471;SDS011;963;42.644;23.336;2024-03-23T13:53:21;5.20;;;1.90;;
1471;SDS011;963;42.644;23.336;2024-03-23T13:55:48;1.93;;;1.43;;
1471;SDS011;963;42.644;23.336;2024-03-23T13:58:14;2.40;;;1.77;;
1471;SDS011;963;42.644;23.336;2024-03-23T14:00:40;2.30;;;1.83;;
1471;SDS011;963;42.644;23.336;2024-03-23T14:03:08;2.30;;;1.40;;
1471;SDS011;963;42.644;23.336;2024-03-23T14:05:34;3.43;;;1.80;;
1471;SDS011;963;42.644;23.336;2024-03-23T14:07:59;3.07;;;1.60;;
1471;SDS011;963;42.644;23.336;2024-03-23T14:10:24;3.40;;;1.70;;
1471;SDS011;963;42.644;23.336;2024-03-23T14:12:50;3.63;;;1.83;;
1471;SDS011;963;42.644;23.336;2024-03-23T14:15:15;2.20;;;1.60;;
1471;SDS011;963;42.644;23.336;2024-03-23T14:17:41;3.53;;;2.13;;
1471;SDS011;963;42.644;23.336;2024-03-23T14:20:06;10.43;;;2.03;;
1471;SDS011;963;42.644;23.336;2024-03-23T14:22:36;2.20;;;1.50;;
1471;SDS011;963;42.644;23.336;2024-03-23T14:25:02;2.80;;;1.93;;
1471;SDS011;963;42.644;23.336;2024-03-23T14:27:27;2.83;;;1.73;;
1471;SDS011;963;42.644;23.336;2024-03-23T14:29:52;7.07;;;2.20;;
1471;SDS011;963;42.644;23.336;2024-03-23T14:32:18;3.23;;;1.40;;
1471;SDS011;963;42.644;23.336;2024-03-23T14:34:43;4.37;;;2.00;;
1471;SDS011;963;42.644;23.336;2024-03-23T14:37:08;3.90;;;1.43;;
1471;SDS011;963;42.644;23.336;2024-03-23T14:39:34;2.60;;;1.50;;
1471;SDS011;963;42.644;23.336;2024-03-23T14:42:00;3.23;;;1.63;;
1471;SDS011;963;42.644;23.336;2024-03-23T14:44:28;2.13;;;1.40;;
1471;SDS011;963;42.644;23.336;2024-03-23T14:46:54;3.27;;;1.43;;
1471;SDS011;963;42.644;23.336;2024-03-23T14:49:20;3.50;;;1.60;;
1471;SDS011;963;42.644;23.336;2024-03-23T14:51:45;2.73;;;1.63;;
1471;SDS011;963;42.644;23.336;2024-03-23T14:54:11;2.47;;;1.73;;
1471;SDS011;963;42.644;23.336;2024-03-23T14:56:38;5.03;;;1.60;;
1471;SDS011;963;42.644;23.336;2024-03-23T14:59:03;2.20;;;1.60;;
1471;SDS011;963;42.644;23.336;2024-03-23T15:01:29;2.63;;;1.63;;
1471;SDS011;963;42.644;23.336;2024-03-23T15:03:54;2.10;;;1.30;;
1471;SDS011;963;42.644;23.336;2024-03-23T15:06:20;2.10;;;1.40;;
1471;SDS011;963;42.644;23.336;2024-03-23T15:08:45;4.23;;;1.50;;
1471;SDS011;963;42.644;23.336;2024-03-23T15:11:10;2.03;;;1.47;;
1471;SDS011;963;42.644;23.336;2024-03-23T15:13:36;3.23;;;1.53;;
1471;SDS011;963;42.644;23.336;2024-03-23T15:16:03;6.40;;;1.87;;
1471;SDS011;963;42.644;23.336;2024-03-23T15:18:29;4.63;;;1.77;;
1471;SDS011;963;42.644;23.336;2024-03-23T15:20:56;2.30;;;1.80;;
1471;SDS011;963;42.644;23.336;2024-03-23T15:23:22;7.93;;;1.90;;
1471;SDS011;963;42.644;23.336;2024-03-23T15:25:55;3.23;;;1.50;;
1471;SDS011;963;42.644;23.336;2024-03-23T15:28:21;2.33;;;1.70;;
1471;SDS011;963;42.644;23.336;2024-03-23T15:30:48;3.40;;;2.17;;
1471;SDS011;963;42.644;23.336;2024-03-23T15:33:13;3.97;;;2.00;;
1471;SDS011;963;42.644;23.336;2024-03-23T15:35:38;5.10;;;2.10;;
1471;SDS011;963;42.644;23.336;2024-03-23T15:38:04;2.70;;;1.63;;
1471;SDS011;963;42.644;23.336;2024-03-23T15:40:29;2.80;;;1.87;;
1471;SDS011;963;42.644;23.336;2024-03-23T15:42:54;3.30;;;2.20;;
1471;SDS011;963;42.644;23.336;2024-03-23T15:45:20;4.10;;;2.00;;
1471;SDS011;963;42.644;23.336;2024-03-23T15:47:45;7.93;;;2.20;;
1471;SDS011;963;42.644;23.336;2024-03-23T15:50:10;3.60;;;2.17;;
1471;SDS011;963;42.644;23.336;2024-03-23T15:52:36;2.90;;;2.20;;
1471;SDS011;963;42.644;23.336;2024-03-23T15:55:03;3.17;;;2.20;;
1471;SDS011;963;42.644;23.336;2024-03-23T15:57:31;5.90;;;2.30;;
1471;SDS011;963;42.644;23.336;2024-03-23T16:00:00;6.60;;;2.70;;
1471;SDS011;963;42.644;23.336;2024-03-23T16:02:26;7.30;;;3.50;;